Time;durP1;ratioP1;P1;durP2;ratioP2;P2;SDS_P1;SDS_P2;PMS_P1;PMS_P2;Temp;Humidity;BMP_temperature;BMP_pressure;BME280_temperature;BME280_humidity;BME280_pressure;Samples;Min_cycle;Max_cycle;Signal;HPM_P1;HPM_P2
2022/09/13 00:00:58;;;;;;;27.30;17.98;;;26.00;99.90;;;;;;1732457;82;21230;-83
2022/09/13 00:03:30;;;;;;;25.43;17.50;;;26.00;99.90;;;;;;1742799;81;21265;-82
2022/09/13 00:06:03;;;;;;;25.25;18.15;;;26.00;99.90;;;;;;1723708;82;21505;-83
2022/09/13 00:08:34;;;;;;;23.60;16.37;;;26.00;99.90;;;;;;1769754;79;21675;-83
2022/09/13 00:11:05;;;;;;;21.80;16.00;;;26.00;99.90;;;;;;1780567;79;21150;-82
2022/09/13 00:13:36;;;;;;;21.93;15.08;;;25.90;99.90;;;;;;1810290;77;21620;-82
2022/09/13 00:16:10;;;;;;;23.40;16.27;;;25.90;99.90;;;;;;1819755;79;21112;-84
2022/09/13 00:18:42;;;;;;;22.05;15.78;;;26.00;99.90;;;;;;1821006;77;21195;-83
2022/09/13 00:21:15;;;;;;;26.70;16.35;;;26.00;99.90;;;;;;1816013;77;21151;-84
2022/09/13 00:23:48;;;;;;;22.98;15.58;;;26.00;99.90;;;;;;1809315;79;21216;-84
2022/09/13 00:26:22;;;;;;;25.23;16.32;;;26.10;99.90;;;;;;1820042;79;21179;-84
2022/09/13 00:28:54;;;;;;;23.83;16.95;;;26.10;99.90;;;;;;1764467;80;21224;-84
2022/09/13 00:31:27;;;;;;;29.70;17.48;;;26.10;99.90;;;;;;1817789;77;21073;-83
2022/09/13 00:34:00;;;;;;;23.18;16.07;;;26.20;99.90;;;;;;1822105;77;21206;-83
2022/09/13 00:36:30;;;;;;;23.80;16.52;;;26.20;99.90;;;;;;1806138;77;21203;-83
2022/09/13 00:39:01;;;;;;;28.25;16.93;;;26.20;99.90;;;;;;1766463;81;21204;-83
2022/09/13 00:41:32;;;;;;;27.65;16.73;;;26.20;99.90;;;;;;1817006;77;21148;-84
2022/09/13 00:44:05;;;;;;;34.45;20.05;;;26.30;99.90;;;;;;1769375;81;21200;-84
2022/09/13 00:46:38;;;;;;;36.85;21.85;;;26.30;99.90;;;;;;1821764;77;21632;-84
2022/09/13 00:49:10;;;;;;;38.75;22.32;;;26.40;99.90;;;;;;1826228;77;21077;-84
2022/09/13 00:51:43;;;;;;;36.50;22.02;;;26.50;99.90;;;;;;1813012;77;21676;-83
2022/09/13 00:54:17;;;;;;;39.67;23.45;;;26.50;99.90;;;;;;1814096;77;21164;-85
2022/09/13 00:56:50;;;;;;;31.60;20.90;;;26.60;99.90;;;;;;1819348;78;21113;-83
2022/09/13 00:59:23;;;;;;;33.25;21.27;;;26.60;99.90;;;;;;1821995;78;21187;-84
2022/09/13 01:01:56;;;;;;;32.73;20.52;;;26.70;99.90;;;;;;1775675;79;21151;-83
2022/09/13 01:04:30;;;;;;;31.15;19.48;;;26.70;99.90;;;;;;1768245;80;21176;-83
2022/09/13 01:07:03;;;;;;;31.20;20.88;;;26.70;99.90;;;;;;1766333;81;21142;-85
2022/09/13 01:09:37;;;;;;;28.25;18.25;;;26.70;99.90;;;;;;1775056;79;21185;-83
2022/09/13 01:12:11;;;;;;;29.37;19.20;;;26.70;99.90;;;;;;1718427;82;21169;-84
2022/09/13 01:14:43;;;;;;;26.37;16.70;;;26.70;99.90;;;;;;1776657;80;21144;-85
2022/09/13 01:17:14;;;;;;;32.23;18.73;;;26.80;99.90;;;;;;1743786;82;21672;-83
2022/09/13 01:19:45;;;;;;;23.18;14.47;;;26.80;99.90;;;;;;1738869;82;21178;-83
2022/09/13 01:22:18;;;;;;;22.60;13.80;;;26.90;99.90;;;;;;1770421;79;21170;-84
2022/09/13 01:24:52;;;;;;;19.67;13.22;;;27.00;99.90;;;;;;1748781;81;21145;-83
2022/09/13 01:27:25;;;;;;;19.23;12.73;;;27.00;99.90;;;;;;1746404;80;21956;-83
2022/09/13 01:29:58;;;;;;;18.55;12.63;;;27.10;99.90;;;;;;1745877;81;21204;-83
2022/09/13 01:32:30;;;;;;;17.55;11.78;;;27.10;99.90;;;;;;1766924;80;21303;-85
2022/09/13 01:35:04;;;;;;;16.55;12.15;;;27.10;99.90;;;;;;1771376;79;21202;-84
2022/09/13 01:37:37;;;;;;;18.05;12.07;;;27.20;99.90;;;;;;1776757;79;21095;-84
2022/09/13 01:40:10;;;;;;;15.60;11.28;;;27.30;99.90;;;;;;1745623;80;21192;-84
2022/09/13 01:42:43;;;;;;;16.25;11.20;;;27.30;99.90;;;;;;1764172;80;21107;-84
2022/09/13 01:45:15;;;;;;;16.20;11.08;;;27.40;99.90;;;;;;1771404;79;21138;-84
2022/09/13 01:47:48;;;;;;;13.55;10.60;;;27.40;99.90;;;;;;1770160;79;21180;-83
2022/09/13 01:50:24;;;;;;;12.25;10.08;;;27.50;99.90;;;;;;1757066;80;21199;-83
2022/09/13 01:52:58;;;;;;;14.07;8.73;;;27.60;99.90;;;;;;1750134;80;21649;-84
2022/09/13 01:55:31;;;;;;;11.40;9.20;;;27.70;99.90;;;;;;1742865;82;21246;-82
2022/09/13 01:58:03;;;;;;;11.73;9.33;;;27.70;99.90;;;;;;1776170;79;21221;-83
2022/09/13 02:00:41;;;;;;;12.55;8.68;;;27.70;99.90;;;;;;1749789;81;21153;-83
2022/09/13 02:03:11;;;;;;;10.48;6.90;;;27.80;99.90;;;;;;1738154;81;21197;-84
2022/09/13 02:05:44;;;;;;;7.90;6.30;;;27.90;99.90;;;;;;1742313;82;21314;-84
2022/09/13 02:08:17;;;;;;;10.13;6.80;;;28.00;99.90;;;;;;1742242;81;21155;-83
2022/09/13 02:10:51;;;;;;;8.55;6.87;;;28.00;99.90;;;;;;1699248;84;21240;-84
2022/09/13 02:13:25;;;;;;;13.58;9.03;;;28.10;99.90;;;;;;1729008;81;21220;-84
2022/09/13 02:15:59;;;;;;;12.68;9.35;;;28.20;99.90;;;;;;1744336;81;21248;-83
2022/09/13 02:18:33;;;;;;;9.95;7.17;;;28.30;99.90;;;;;;1738705;82;21544;-85
2022/09/13 02:21:09;;;;;;;13.17;8.03;;;28.40;99.90;;;;;;1740032;82;21159;-84
2022/09/13 02:23:45;;;;;;;10.70;7.62;;;28.40;99.90;;;;;;1739577;81;21183;-85
2022/09/13 02:26:17;;;;;;;8.83;6.37;;;28.50;99.90;;;;;;1710004;83;21272;-85
2022/09/13 02:28:51;;;;;;;7.30;5.25;;;28.50;99.90;;;;;;1745628;82;21965;-83
2022/09/13 02:31:25;;;;;;;6.85;5.00;;;28.60;99.90;;;;;;1743813;81;21219;-85
2022/09/13 02:33:58;;;;;;;3.80;3.25;;;28.60;99.90;;;;;;1708052;83;21209;-85
2022/09/13 02:36:32;;;;;;;10.43;4.62;;;28.70;99.90;;;;;;1742413;81;21207;-74
2022/09/13 02:39:05;;;;;;;9.90;5.50;;;28.70;99.90;;;;;;1741354;82;21287;-73
2022/09/13 02:41:38;;;;;;;9.70;4.80;;;28.70;99.90;;;;;;1718241;82;21176;-72
2022/09/13 02:44:12;;;;;;;6.90;4.83;;;28.80;99.90;;;;;;1706787;83;21669;-72
2022/09/13 02:46:47;;;;;;;6.30;5.08;;;28.90;99.90;;;;;;1728804;82;21602;-73
2022/09/13 02:49:22;;;;;;;6.20;5.10;;;28.90;99.90;;;;;;1729770;82;21776;-72
2022/09/13 02:51:55;;;;;;;6.83;5.17;;;29.10;99.90;;;;;;1730177;82;21208;-73
2022/09/13 02:54:28;;;;;;;9.83;6.22;;;29.20;99.90;;;;;;1707489;83;21227;-73
2022/09/13 02:57:02;;;;;;;9.90;6.70;;;29.40;99.90;;;;;;1745926;81;21188;-73
2022/09/13 02:59:33;;;;;;;10.90;6.03;;;29.50;99.90;;;;;;1715101;82;21206;-73
2022/09/13 03:02:06;;;;;;;7.72;6.20;;;29.60;99.60;;;;;;1745615;81;21185;-71
2022/09/13 03:04:40;;;;;;;8.25;5.80;;;29.60;99.40;;;;;;1747978;81;21760;-72
2022/09/13 03:07:13;;;;;;;9.73;5.78;;;29.50;99.40;;;;;;1743078;81;21676;-73
2022/09/13 03:09:47;;;;;;;8.10;5.75;;;29.60;99.40;;;;;;1741103;81;21157;-73
2022/09/13 03:12:21;;;;;;;9.50;5.80;;;29.70;99.20;;;;;;1742860;82;21169;-73
2022/09/13 03:14:53;;;;;;;7.78;5.87;;;29.70;98.90;;;;;;1752022;82;21126;-73
2022/09/13 03:17:26;;;;;;;5.72;4.85;;;29.70;98.70;;;;;;1773419;79;21763;-73
2022/09/13 03:19:57;;;;;;;7.33;5.10;;;29.70;99.00;;;;;;1767097;79;21157;-74
2022/09/13 03:22:49;;;;;;;6.00;5.12;;;29.80;98.70;;;;;;1737404;82;21634;-73
2022/09/13 03:25:19;;;;;;;6.17;5.15;;;29.90;98.80;;;;;;1794999;78;21100;-72
2022/09/13 03:27:52;;;;;;;6.15;4.90;;;30.00;98.50;;;;;;1803452;78;21294;-72
2022/09/13 03:30:24;;;;;;;6.08;4.55;;;30.20;98.50;;;;;;1795284;78;22174;-72
2022/09/13 03:32:57;;;;;;;5.55;4.10;;;30.30;98.10;;;;;;1833060;78;21702;-72
2022/09/13 03:35:30;;;;;;;5.60;4.60;;;30.50;97.70;;;;;;1817320;77;21239;-72
2022/09/13 03:38:04;;;;;;;4.37;3.72;;;30.50;97.20;;;;;;1815811;78;21686;-72
2022/09/13 03:40:37;;;;;;;4.67;3.87;;;30.60;97.10;;;;;;1827206;77;21184;-72
2022/09/13 03:43:11;;;;;;;5.90;4.40;;;30.60;97.30;;;;;;1858314;76;21666;-72
2022/09/13 03:45:48;;;;;;;5.20;3.90;;;30.70;97.30;;;;;;1848332;76;21750;-72
2022/09/13 03:48:21;;;;;;;5.62;4.35;;;30.80;96.80;;;;;;1861081;76;21130;-73
2022/09/13 03:50:53;;;;;;;5.20;3.58;;;30.90;96.70;;;;;;1809884;78;21272;-72
2022/09/13 03:53:25;;;;;;;6.97;3.52;;;31.10;95.90;;;;;;1822989;77;21082;-72
2022/09/13 03:55:56;;;;;;;7.30;3.80;;;31.30;95.20;;;;;;1795989;78;21641;-72
2022/09/13 03:58:29;;;;;;;5.42;3.55;;;31.40;94.90;;;;;;1825516;77;21201;-72
2022/09/13 04:00:59;;;;;;;7.33;4.00;;;31.40;95.10;;;;;;1851538;76;21128;-72
2022/09/13 04:03:30;;;;;;;6.92;3.50;;;31.40;94.70;;;;;;1831112;77;21157;-72
2022/09/13 04:06:01;;;;;;;3.37;2.98;;;31.30;94.20;;;;;;1797694;78;21229;-72
2022/09/13 04:08:33;;;;;;;4.45;3.17;;;31.40;94.10;;;;;;1816047;77;21154;-72
2022/09/13 04:11:04;;;;;;;5.25;3.30;;;31.50;93.50;;;;;;1796947;78;21244;-72
2022/09/13 04:13:36;;;;;;;5.35;3.40;;;31.60;93.70;;;;;;1819666;77;21127;-72
2022/09/13 04:16:07;;;;;;;3.90;2.60;;;31.70;93.80;;;;;;1791711;78;21151;-71
2022/09/13 04:18:39;;;;;;;3.65;2.87;;;31.80;93.40;;;;;;1855041;76;21648;-71
2022/09/13 04:21:09;;;;;;;4.22;3.37;;;31.90;93.50;;;;;;1840723;76;21220;-72
2022/09/13 04:23:40;;;;;;;4.28;3.20;;;32.00;92.60;;;;;;1849592;74;21193;-72
2022/09/13 04:26:11;;;;;;;4.95;2.95;;;32.10;92.60;;;;;;1893668;74;21244;-72
2022/09/13 04:28:42;;;;;;;4.05;3.08;;;32.10;92.90;;;;;;1892745;74;21477;-72
2022/09/13 04:31:12;;;;;;;5.58;3.12;;;32.00;93.00;;;;;;1901027;73;21189;-72
2022/09/13 04:33:44;;;;;;;4.83;3.05;;;31.80;93.00;;;;;;1904116;73;21624;-72
2022/09/13 04:36:15;;;;;;;4.90;3.25;;;31.60;93.00;;;;;;1900082;74;21154;-72
2022/09/13 04:38:47;;;;;;;3.80;3.10;;;31.40;92.60;;;;;;1902362;73;21125;-73
2022/09/13 04:41:19;;;;;;;3.45;2.55;;;31.30;93.20;;;;;;1898221;74;21535;-73
2022/09/13 04:43:52;;;;;;;2.90;2.58;;;31.20;93.50;;;;;;1912276;73;21169;-73
2022/09/13 04:46:23;;;;;;;4.35;3.30;;;31.20;93.30;;;;;;1898658;73;21146;-73
2022/09/13 04:48:54;;;;;;;4.75;3.22;;;31.20;93.20;;;;;;1909762;74;21118;-71
2022/09/13 04:51:25;;;;;;;6.15;3.02;;;31.20;93.70;;;;;;1899983;73;21650;-72
2022/09/13 04:53:59;;;;;;;4.60;2.90;;;31.10;93.20;;;;;;1911520;74;21145;-71
2022/09/13 04:56:29;;;;;;;4.75;3.10;;;31.10;93.40;;;;;;1887801;74;21134;-72
2022/09/13 04:59:00;;;;;;;4.10;2.90;;;31.00;93.60;;;;;;1868251;74;21544;-72
2022/09/13 05:01:31;;;;;;;3.98;3.05;;;31.00;93.60;;;;;;1912213;74;21606;-72
2022/09/13 05:04:03;;;;;;;4.10;2.60;;;31.10;93.60;;;;;;1901030;74;21236;-71
2022/09/13 05:06:34;;;;;;;3.92;2.70;;;31.20;93.80;;;;;;1898786;73;21137;-72
2022/09/13 05:09:06;;;;;;;4.42;2.90;;;31.40;94.40;;;;;;1897633;74;21222;-71
2022/09/13 05:11:37;;;;;;;7.58;4.00;;;31.40;93.10;;;;;;1908023;73;21617;-72
2022/09/13 05:14:09;;;;;;;5.67;2.58;;;31.50;93.40;;;;;;1902068;74;21047;-72
2022/09/13 05:16:40;;;;;;;4.00;2.65;;;31.40;93.10;;;;;;1900767;74;21089;-74
2022/09/13 05:19:12;;;;;;;5.33;2.92;;;31.40;93.20;;;;;;1896270;74;21157;-72
2022/09/13 05:21:43;;;;;;;3.70;2.95;;;31.30;93.50;;;;;;1904774;73;21120;-74
2022/09/13 05:24:14;;;;;;;3.58;2.52;;;31.20;93.60;;;;;;1905725;74;21177;-72
2022/09/13 05:26:45;;;;;;;4.55;3.25;;;31.10;93.80;;;;;;1883607;74;21620;-72
2022/09/13 05:29:16;;;;;;;4.53;2.92;;;31.10;93.80;;;;;;1891080;74;21598;-74
2022/09/13 05:31:47;;;;;;;4.50;3.15;;;31.10;93.70;;;;;;1881974;74;21677;-74
2022/09/13 05:34:19;;;;;;;4.62;2.58;;;31.20;93.60;;;;;;1892763;74;21667;-74
2022/09/13 05:36:50;;;;;;;5.25;3.15;;;31.40;93.20;;;;;;1896516;74;21159;-74
2022/09/13 05:39:22;;;;;;;4.65;2.67;;;31.50;92.80;;;;;;1888897;74;21126;-74
2022/09/13 05:41:55;;;;;;;3.85;2.83;;;31.60;92.90;;;;;;1891710;74;21160;-71
2022/09/13 05:44:26;;;;;;;4.30;3.20;;;31.70;93.10;;;;;;1878577;75;21596;-72
2022/09/13 05:46:58;;;;;;;5.58;3.47;;;31.80;92.70;;;;;;1882495;74;21545;-72
2022/09/13 05:49:29;;;;;;;3.92;2.62;;;31.80;92.10;;;;;;1883487;75;21679;-71
2022/09/13 05:52:00;;;;;;;3.52;2.62;;;31.80;92.10;;;;;;1880174;74;21654;-72
2022/09/13 05:54:33;;;;;;;3.85;2.50;;;31.70;92.10;;;;;;1881224;74;21077;-71
2022/09/13 05:57:07;;;;;;;3.08;2.40;;;31.80;92.30;;;;;;1885949;75;21142;-71
2022/09/13 05:59:40;;;;;;;3.35;2.25;;;31.80;91.80;;;;;;1886366;74;21629;-71
2022/09/13 06:02:11;;;;;;;3.95;2.60;;;31.80;92.00;;;;;;1892881;75;21176;-71
2022/09/13 06:04:45;;;;;;;4.42;2.50;;;31.70;92.40;;;;;;1897656;74;21561;-72
2022/09/13 06:07:17;;;;;;;3.27;2.45;;;31.60;92.60;;;;;;1904157;74;21541;-71
2022/09/13 06:09:48;;;;;;;5.53;2.58;;;31.50;92.50;;;;;;1898767;74;21584;-72
2022/09/13 06:12:19;;;;;;;3.40;1.95;;;31.60;93.00;;;;;;1893813;75;21613;-72
2022/09/13 06:14:50;;;;;;;7.00;2.60;;;31.80;92.20;;;;;;1899054;75;21232;-73
2022/09/13 06:17:21;;;;;;;8.00;2.87;;;31.90;91.90;;;;;;1885016;73;21235;-73
2022/09/13 06:19:52;;;;;;;4.15;2.10;;;32.10;91.20;;;;;;1883156;75;21252;-72
2022/09/13 06:22:31;;;;;;;3.62;2.30;;;32.20;91.40;;;;;;1871526;76;21097;-73
2022/09/13 06:24:58;;;;;;;4.50;2.40;;;32.20;90.90;;;;;;1887171;73;21153;-72
2022/09/13 06:27:30;;;;;;;3.77;2.45;;;32.10;90.60;;;;;;1894834;75;21823;-72
2022/09/13 06:30:01;;;;;;;2.67;2.05;;;32.00;91.20;;;;;;1887909;74;21112;-72
2022/09/13 06:32:35;;;;;;;4.15;2.37;;;31.80;91.20;;;;;;1888606;75;21155;-73
2022/09/13 06:35:06;;;;;;;4.80;2.35;;;31.70;91.20;;;;;;1897226;73;21160;-72
2022/09/13 06:37:42;;;;;;;6.37;2.45;;;31.60;91.40;;;;;;1891958;74;21547;-72
2022/09/13 06:40:10;;;;;;;6.03;2.65;;;31.40;91.60;;;;;;1882683;75;21097;-71
2022/09/13 06:42:41;;;;;;;4.90;2.80;;;31.30;92.00;;;;;;1884846;75;21065;-72
2022/09/13 06:45:12;;;;;;;4.15;2.42;;;31.30;92.00;;;;;;1879019;74;21222;-72
2022/09/13 06:47:43;;;;;;;3.33;2.30;;;31.20;92.20;;;;;;1894575;75;21937;-73
2022/09/13 06:50:13;;;;;;;3.37;2.62;;;31.10;92.10;;;;;;1892742;74;21144;-71
2022/09/13 06:52:45;;;;;;;5.70;2.40;;;31.10;92.30;;;;;;1832989;77;21652;-72
2022/09/13 06:55:16;;;;;;;3.33;2.40;;;31.10;92.20;;;;;;1844813;77;21054;-72
2022/09/13 06:57:47;;;;;;;4.65;2.50;;;31.20;92.00;;;;;;1847301;76;21542;-72
2022/09/13 07:00:18;;;;;;;3.35;2.27;;;31.20;91.90;;;;;;1901259;74;21716;-72
2022/09/13 07:02:51;;;;;;;3.02;2.15;;;31.40;91.30;;;;;;1881878;74;21131;-72
2022/09/13 07:05:22;;;;;;;3.55;2.12;;;31.50;90.40;;;;;;1888414;74;21143;-72
2022/09/13 07:07:54;;;;;;;4.05;2.20;;;31.60;90.50;;;;;;1883020;74;21392;-73
2022/09/13 07:10:31;;;;;;;5.83;2.33;;;31.70;90.40;;;;;;1884684;75;21083;-72
2022/09/13 07:13:02;;;;;;;3.10;2.00;;;31.80;89.70;;;;;;1890559;75;21609;-72
2022/09/13 07:15:34;;;;;;;2.50;1.90;;;31.80;89.10;;;;;;1875548;74;21085;-73
2022/09/13 07:18:06;;;;;;;3.02;1.72;;;31.90;88.20;;;;;;1878451;74;21202;-72
2022/09/13 07:20:37;;;;;;;2.87;1.85;;;32.00;87.90;;;;;;1899203;74;21409;-72
2022/09/13 07:23:07;;;;;;;2.85;1.67;;;32.00;87.80;;;;;;1882537;74;22261;-72
2022/09/13 07:25:39;;;;;;;4.90;1.90;;;32.00;86.80;;;;;;1880760;74;21129;-72
2022/09/13 07:28:10;;;;;;;3.30;1.72;;;32.10;86.80;;;;;;1889622;73;21257;-72
2022/09/13 07:30:42;;;;;;;2.47;1.57;;;32.10;86.50;;;;;;1876839;75;21698;-72
2022/09/13 07:33:13;;;;;;;3.42;1.87;;;32.10;86.70;;;;;;1878165;74;21603;-72
2022/09/13 07:35:44;;;;;;;4.37;1.80;;;32.10;86.10;;;;;;1886756;75;21164;-72
2022/09/13 07:38:14;;;;;;;2.25;1.50;;;32.10;86.10;;;;;;1878788;74;21152;-72
2022/09/13 07:40:51;;;;;;;5.72;1.65;;;32.20;85.00;;;;;;1886331;75;21550;-72
2022/09/13 07:43:22;;;;;;;3.75;1.95;;;32.20;84.80;;;;;;1900895;74;21167;-72
2022/09/13 07:45:56;;;;;;;2.83;1.52;;;32.20;85.50;;;;;;1884530;74;21168;-72
2022/09/13 07:48:29;;;;;;;2.30;1.40;;;32.20;86.00;;;;;;1890062;74;21134;-72
2022/09/13 07:51:03;;;;;;;2.37;1.57;;;32.20;85.40;;;;;;1895770;73;21645;-72
2022/09/13 07:53:36;;;;;;;3.12;1.65;;;32.20;84.30;;;;;;1887460;75;21132;-71
2022/09/13 07:56:07;;;;;;;3.77;1.55;;;32.20;83.60;;;;;;1902911;74;21171;-71
2022/09/13 07:58:40;;;;;;;2.40;1.52;;;32.30;83.60;;;;;;1877115;75;21208;-73
2022/09/13 08:01:13;;;;;;;2.10;1.30;;;32.40;85.60;;;;;;1882425;75;21144;-72
2022/09/13 08:03:49;;;;;;;3.00;1.40;;;32.40;80.80;;;;;;1883472;74;21226;-71
2022/09/13 08:06:20;;;;;;;2.10;1.57;;;32.40;80.90;;;;;;1887908;75;21152;-72
2022/09/13 08:08:54;;;;;;;2.52;1.75;;;32.40;82.10;;;;;;1863386;73;21122;-72
2022/09/13 08:11:27;;;;;;;2.02;1.50;;;32.40;81.60;;;;;;1905885;74;21088;-72
2022/09/13 08:14:03;;;;;;;2.15;1.50;;;32.30;82.70;;;;;;1879572;74;21636;-72
2022/09/13 08:16:39;;;;;;;4.45;1.70;;;32.30;83.40;;;;;;1892424;73;21165;-72
2022/09/13 08:19:07;;;;;;;3.83;1.90;;;32.30;83.10;;;;;;1888887;75;21142;-71
2022/09/13 08:21:41;;;;;;;3.22;1.50;;;32.30;82.60;;;;;;1896287;75;21179;-73
2022/09/13 08:24:18;;;;;;;2.47;1.77;;;32.30;82.40;;;;;;1892065;74;21101;-73
2022/09/13 08:26:50;;;;;;;3.12;2.10;;;32.30;82.70;;;;;;1891518;74;21516;-73
2022/09/13 08:29:22;;;;;;;2.10;1.40;;;32.30;82.30;;;;;;1905346;74;21202;-72
2022/09/13 08:31:56;;;;;;;2.33;1.40;;;32.30;82.30;;;;;;1889711;74;21135;-73
2022/09/13 08:34:27;;;;;;;2.00;1.45;;;32.30;81.80;;;;;;1890876;75;21162;-73
2022/09/13 08:37:02;;;;;;;3.30;1.80;;;32.30;81.70;;;;;;1891434;73;21742;-73
2022/09/13 08:39:29;;;;;;;3.10;1.77;;;32.30;81.00;;;;;;1893691;74;21148;-73
2022/09/13 08:42:05;;;;;;;1.82;1.47;;;32.40;81.40;;;;;;1882718;75;21575;-72
2022/09/13 08:44:37;;;;;;;4.67;1.77;;;32.40;80.90;;;;;;1886355;74;21147;-72
2022/09/13 08:47:11;;;;;;;2.60;1.80;;;32.40;82.10;;;;;;1888529;75;21166;-73
2022/09/13 08:49:44;;;;;;;2.42;1.62;;;32.30;81.80;;;;;;1887771;75;21733;-72
2022/09/13 08:52:17;;;;;;;3.87;1.80;;;32.30;82.10;;;;;;1884355;74;21123;-71
2022/09/13 08:54:52;;;;;;;2.75;1.55;;;32.20;82.00;;;;;;1882825;74;21793;-72
2022/09/13 08:57:29;;;;;;;2.47;1.50;;;32.20;82.10;;;;;;1880817;75;21189;-75
2022/09/13 08:59:59;;;;;;;2.12;1.40;;;32.20;81.00;;;;;;1887827;74;21115;-73
2022/09/13 09:02:34;;;;;;;3.45;1.60;;;32.20;80.30;;;;;;1887725;74;21237;-72
2022/09/13 09:05:07;;;;;;;2.25;1.50;;;32.20;80.70;;;;;;1900569;74;21182;-72
2022/09/13 09:07:42;;;;;;;2.85;1.60;;;32.10;80.60;;;;;;1878664;75;21712;-73
2022/09/13 09:10:16;;;;;;;2.98;1.65;;;32.10;81.00;;;;;;1881458;74;21547;-72
2022/09/13 09:12:52;;;;;;;2.87;1.67;;;32.00;82.40;;;;;;1845787;76;21198;-72
2022/09/13 09:15:28;;;;;;;3.87;2.00;;;32.10;83.60;;;;;;1833620;77;21139;-72
2022/09/13 09:18:09;;;;;;;2.67;1.95;;;32.00;83.60;;;;;;1861633;76;21133;-72
2022/09/13 09:20:42;;;;;;;2.98;1.80;;;32.00;83.90;;;;;;1853472;76;21096;-72
2022/09/13 09:23:18;;;;;;;2.77;1.90;;;31.90;84.00;;;;;;1863614;76;21121;-72
2022/09/13 09:25:56;;;;;;;2.40;1.80;;;31.90;84.50;;;;;;1860251;76;21643;-74
2022/09/13 09:28:30;;;;;;;3.22;1.85;;;31.80;84.60;;;;;;1856355;74;21345;-72
2022/09/13 09:31:00;;;;;;;3.10;2.00;;;31.80;84.70;;;;;;1828524;78;21130;-74
2022/09/13 09:33:34;;;;;;;3.27;2.10;;;31.80;84.70;;;;;;1823727;77;22114;-73
2022/09/13 09:36:07;;;;;;;2.75;1.70;;;31.80;84.70;;;;;;1836199;76;21142;-72
2022/09/13 09:38:41;;;;;;;3.30;2.08;;;31.80;85.20;;;;;;1838190;76;21121;-73
2022/09/13 09:41:17;;;;;;;2.80;1.80;;;31.80;84.60;;;;;;1846242;76;21169;-72
2022/09/13 09:43:51;;;;;;;3.83;2.00;;;31.80;84.40;;;;;;1833387;76;21170;-72
2022/09/13 09:46:28;;;;;;;2.67;1.77;;;31.80;84.60;;;;;;1835588;76;21114;-72
2022/09/13 09:49:01;;;;;;;4.05;2.15;;;31.80;84.30;;;;;;1854845;76;21672;-72
2022/09/13 09:51:33;;;;;;;4.45;2.65;;;31.80;84.30;;;;;;1810129;78;21658;-73
2022/09/13 09:54:05;;;;;;;5.90;2.30;;;31.70;84.40;;;;;;1835466;76;21559;-73
2022/09/13 09:56:37;;;;;;;2.72;2.08;;;31.70;85.00;;;;;;1856816;76;21130;-72
2022/09/13 09:59:10;;;;;;;3.15;2.00;;;31.70;85.30;;;;;;1851464;76;21649;-72
2022/09/13 10:01:46;;;;;;;3.50;2.30;;;31.60;85.20;;;;;;1849841;76;21155;-72
2022/09/13 10:04:20;;;;;;;2.92;2.00;;;31.60;85.80;;;;;;1854893;76;21087;-73
2022/09/13 10:06:53;;;;;;;2.80;1.72;;;31.60;86.10;;;;;;1814972;77;21236;-81
2022/09/13 10:09:26;;;;;;;3.37;1.95;;;31.50;86.20;;;;;;1811466;78;21225;-82
2022/09/13 10:11:58;;;;;;;3.10;2.00;;;31.50;86.60;;;;;;1854660;76;21148;-83
2022/09/13 10:14:31;;;;;;;2.87;1.80;;;31.40;86.20;;;;;;1854583;75;21619;-80
2022/09/13 10:17:04;;;;;;;3.40;2.22;;;31.50;86.60;;;;;;1810194;78;21092;-82
2022/09/13 10:19:38;;;;;;;3.47;2.20;;;31.40;86.90;;;;;;1840381;76;21676;-81
2022/09/13 10:22:13;;;;;;;5.90;2.70;;;31.40;87.10;;;;;;1867454;75;21117;-82
2022/09/13 10:24:47;;;;;;;4.12;2.58;;;31.40;87.40;;;;;;1873343;75;21095;-82
2022/09/13 10:27:21;;;;;;;2.67;2.00;;;31.40;87.60;;;;;;1851742;73;21128;-82
2022/09/13 10:29:58;;;;;;;4.20;2.37;;;31.40;87.70;;;;;;1898569;75;21112;-82
2022/09/13 10:32:29;;;;;;;5.35;2.47;;;31.40;87.50;;;;;;1905828;75;21146;-82
2022/09/13 10:35:02;;;;;;;3.92;2.45;;;31.40;87.90;;;;;;1905573;75;21179;-81
2022/09/13 10:37:34;;;;;;;4.75;2.77;;;31.40;87.80;;;;;;1890892;74;21237;-80
2022/09/13 10:40:11;;;;;;;6.55;2.52;;;31.30;87.20;;;;;;1878915;74;21149;-82
2022/09/13 10:42:45;;;;;;;5.30;2.50;;;31.40;87.40;;;;;;1899822;74;21139;-82
2022/09/13 10:45:18;;;;;;;3.10;2.25;;;31.30;87.40;;;;;;1901031;74;21147;-82
2022/09/13 10:47:53;;;;;;;6.10;2.90;;;31.20;87.30;;;;;;1895549;73;21194;-83
2022/09/13 10:50:32;;;;;;;6.00;3.42;;;31.20;87.60;;;;;;1901593;74;21756;-83
2022/09/13 10:53:02;;;;;;;4.78;3.20;;;31.20;88.40;;;;;;1896923;74;21159;-84
2022/09/13 10:55:39;;;;;;;6.42;3.50;;;31.20;89.10;;;;;;1901692;74;21172;-83
2022/09/13 10:58:10;;;;;;;6.08;3.30;;;31.20;88.90;;;;;;1884600;74;21091;-84
2022/09/13 11:00:41;;;;;;;4.95;3.20;;;31.20;89.20;;;;;;1897125;73;21083;-83
2022/09/13 11:03:13;;;;;;;4.95;3.22;;;31.20;89.30;;;;;;1902020;74;21189;-82
2022/09/13 11:05:43;;;;;;;6.33;3.52;;;31.20;90.00;;;;;;1899199;74;21157;-84
2022/09/13 11:08:17;;;;;;;7.97;3.50;;;31.20;90.20;;;;;;1894990;74;21170;-82
2022/09/13 11:10:50;;;;;;;7.25;3.98;;;31.20;90.40;;;;;;1848500;76;21201;-83
2022/09/13 11:13:23;;;;;;;9.05;5.50;;;31.10;90.40;;;;;;1890068;75;21087;-83
2022/09/13 11:15:57;;;;;;;10.20;5.53;;;31.10;91.60;;;;;;1887417;75;21122;-83
2022/09/13 11:18:33;;;;;;;7.50;4.70;;;31.00;92.30;;;;;;1892994;74;21153;-83
2022/09/13 11:21:06;;;;;;;8.90;5.08;;;30.90;92.90;;;;;;1891375;74;21198;-82
2022/09/13 11:23:36;;;;;;;7.45;5.20;;;30.80;93.20;;;;;;1908485;74;21107;-82
2022/09/13 11:26:08;;;;;;;6.33;4.72;;;30.70;93.50;;;;;;1861759;76;21150;-82
2022/09/13 11:28:43;;;;;;;8.58;5.30;;;30.60;93.70;;;;;;1846395;75;21168;-83
2022/09/13 11:31:16;;;;;;;7.08;4.55;;;30.50;94.10;;;;;;1843792;76;21299;-83
2022/09/13 11:33:51;;;;;;;8.55;5.03;;;30.40;94.20;;;;;;1850123;76;21642;-82
2022/09/13 11:36:24;;;;;;;5.90;4.05;;;30.30;94.50;;;;;;1841291;76;21251;-83
2022/09/13 11:39:00;;;;;;;7.93;5.10;;;30.10;94.70;;;;;;1844990;76;21177;-83
2022/09/13 11:41:30;;;;;;;9.73;4.80;;;30.00;94.60;;;;;;1839217;77;21295;-83
2022/09/13 11:44:04;;;;;;;6.40;4.53;;;29.90;94.80;;;;;;1840761;77;21248;-82
2022/09/13 11:46:38;;;;;;;6.33;4.55;;;29.90;95.00;;;;;;1842725;77;21205;-82
2022/09/13 11:49:11;;;;;;;6.62;4.80;;;29.80;95.10;;;;;;1844062;76;21684;-83
2022/09/13 11:51:45;;;;;;;8.15;5.25;;;29.80;95.10;;;;;;1824155;76;21272;-82
2022/09/13 11:54:19;;;;;;;8.65;5.20;;;29.70;95.00;;;;;;1843851;76;21117;-83
2022/09/13 11:56:53;;;;;;;8.23;5.10;;;29.70;95.30;;;;;;1832654;76;21162;-82
2022/09/13 11:59:27;;;;;;;8.08;4.97;;;29.70;95.40;;;;;;1846801;76;21102;-83
2022/09/13 12:02:00;;;;;;;7.83;4.97;;;29.70;95.30;;;;;;1849330;76;21236;-84
2022/09/13 12:04:34;;;;;;;6.40;4.92;;;29.60;95.50;;;;;;1848390;76;21239;-83
2022/09/13 12:07:08;;;;;;;8.68;5.25;;;29.60;95.60;;;;;;1844192;76;21194;-83
2022/09/13 12:09:41;;;;;;;8.73;4.47;;;29.50;95.20;;;;;;1843250;76;21123;-83
2022/09/13 12:12:14;;;;;;;6.33;4.12;;;29.50;95.20;;;;;;1845589;77;21772;-84
2022/09/13 12:14:46;;;;;;;9.15;3.92;;;29.50;95.20;;;;;;1807302;77;21151;-84
2022/09/13 12:17:19;;;;;;;7.60;3.90;;;29.40;95.30;;;;;;1823302;76;21621;-83
2022/09/13 12:19:53;;;;;;;7.10;4.33;;;29.40;95.30;;;;;;1840910;76;21042;-83
2022/09/13 12:22:27;;;;;;;9.93;5.00;;;29.40;95.20;;;;;;1811312;77;21217;-83
2022/09/13 12:25:04;;;;;;;9.83;4.53;;;29.40;95.30;;;;;;1810924;79;21817;-83
2022/09/13 12:27:35;;;;;;;7.15;4.85;;;29.40;95.30;;;;;;1863540;75;21181;-83
2022/09/13 12:30:09;;;;;;;7.80;4.45;;;29.40;95.40;;;;;;1850528;74;21188;-83
2022/09/13 12:32:44;;;;;;;10.18;4.60;;;29.40;95.40;;;;;;1844829;76;21161;-84
2022/09/13 12:35:19;;;;;;;11.43;4.70;;;29.40;95.40;;;;;;1849719;76;21640;-82
2022/09/13 12:37:55;;;;;;;6.90;4.22;;;29.40;95.50;;;;;;1856847;76;21182;-82
2022/09/13 12:40:28;;;;;;;9.08;5.05;;;29.40;95.60;;;;;;1856875;76;21534;-84
2022/09/13 12:43:03;;;;;;;8.85;4.60;;;29.40;95.70;;;;;;1803038;78;21247;-82
2022/09/13 12:45:39;;;;;;;7.42;5.00;;;29.40;95.40;;;;;;1811917;78;21162;-83
2022/09/13 12:48:10;;;;;;;7.30;4.62;;;29.40;95.80;;;;;;1812665;78;21204;-83
2022/09/13 12:50:44;;;;;;;11.75;5.72;;;29.30;95.40;;;;;;1871008;75;21133;-83
2022/09/13 12:53:17;;;;;;;9.30;5.10;;;29.40;95.40;;;;;;1886434;75;21200;-82
2022/09/13 12:55:56;;;;;;;10.00;5.40;;;29.40;95.50;;;;;;1891034;75;21602;-83
2022/09/13 12:58:25;;;;;;;10.58;5.40;;;29.40;95.50;;;;;;1898370;74;21150;-82
2022/09/13 13:00:57;;;;;;;9.40;5.10;;;29.30;95.50;;;;;;1792859;78;21114;-83
2022/09/13 13:03:36;;;;;;;9.33;5.33;;;29.30;95.50;;;;;;1857507;76;21636;-83
2022/09/13 13:06:10;;;;;;;7.78;5.15;;;29.30;95.50;;;;;;1800624;78;21147;-82
2022/09/13 13:08:38;;;;;;;7.35;4.78;;;29.30;95.70;;;;;;1846668;76;21152;-83
2022/09/13 13:11:14;;;;;;;7.53;5.12;;;29.30;95.80;;;;;;1854941;76;21108;-84